createdAt,value
2022-12-18T00:00:18.947Z,26.50
2022-12-18T00:03:08.061Z,25.10
2022-12-18T00:05:37.858Z,26.80
2022-12-18T00:08:09.582Z,23.10
2022-12-18T00:10:38.192Z,29.40
2022-12-18T00:13:09.882Z,28.00
2022-12-18T00:15:40.473Z,25.00
2022-12-18T00:18:09.284Z,25.80
2022-12-18T00:20:39.485Z,24.10
2022-12-18T00:23:08.621Z,20.10
2022-12-18T00:25:37.838Z,22.80
2022-12-18T00:28:06.849Z,25.30
2022-12-18T00:30:35.308Z,24.90
2022-12-18T00:33:03.884Z,27.90
2022-12-18T00:35:33.273Z,25.60
2022-12-18T00:38:01.797Z,23.90
2022-12-18T00:40:30.262Z,25.00
2022-12-18T00:42:58.857Z,23.80
2022-12-18T00:45:30.649Z,23.00
2022-12-18T00:47:59.290Z,22.40
2022-12-18T00:50:28.298Z,22.00
2022-12-18T00:52:56.781Z,22.70
2022-12-18T00:55:25.310Z,20.80
2022-12-18T00:57:53.829Z,21.30
2022-12-18T01:00:22.546Z,20.90
2022-12-18T01:02:51.091Z,21.90
2022-12-18T01:05:20.041Z,20.90
2022-12-18T01:07:48.531Z,20.30
2022-12-18T01:10:17.055Z,21.90
2022-12-18T01:12:45.600Z,22.20
2022-12-18T01:15:16.206Z,21.00
2022-12-18T01:17:45.035Z,21.30
2022-12-18T01:20:14.515Z,22.30
2022-12-18T01:22:43.271Z,21.50
2022-12-18T01:25:11.833Z,22.40
2022-12-18T01:27:40.236Z,21.10
2022-12-18T01:30:09.404Z,24.60
2022-12-18T01:32:37.874Z,21.10
2022-12-18T01:35:07.349Z,21.40
2022-12-18T01:37:35.877Z,25.90
2022-12-18T01:40:04.961Z,20.50
2022-12-18T01:42:33.441Z,20.20
2022-12-18T01:45:13.774Z,19.70
2022-12-18T01:47:49.338Z,22.80
2022-12-18T01:50:44.213Z,25.00
2022-12-18T01:53:20.238Z,20.40
2022-12-18T01:55:57.361Z,20.80
2022-12-18T01:58:44.817Z,23.70
2022-12-18T02:01:14.008Z,23.20
2022-12-18T02:03:44.912Z,22.10
2022-12-18T02:06:39.070Z,21.40
2022-12-18T02:09:16.404Z,21.60
2022-12-18T02:11:55.684Z,24.30
2022-12-18T02:17:19.622Z,22.10
2022-12-18T02:20:17.650Z,20.00
2022-12-18T02:23:31.345Z,21.20
2022-12-18T02:26:11.660Z,26.00
2022-12-18T02:28:50.505Z,23.20
2022-12-18T02:31:25.916Z,17.50
2022-12-18T02:33:59.983Z,21.20
2022-12-18T02:36:30.900Z,21.60
2022-12-18T02:39:00.473Z,21.80
2022-12-18T02:41:31.109Z,21.60
2022-12-18T02:44:07.909Z,22.80
2022-12-18T02:46:38.912Z,24.70
2022-12-18T02:49:48.621Z,25.20
2022-12-18T02:52:47.288Z,23.60
2022-12-18T02:55:25.180Z,23.90
2022-12-18T02:58:32.730Z,24.90
2022-12-18T03:01:35.116Z,27.20
2022-12-18T03:04:41.011Z,21.70
2022-12-18T03:07:19.789Z,27.40
2022-12-18T03:09:54.337Z,22.90
2022-12-18T03:12:32.652Z,25.40
2022-12-18T03:15:18.825Z,25.20
2022-12-18T03:17:56.457Z,24.30
2022-12-18T03:20:30.445Z,24.70
2022-12-18T03:23:09.977Z,22.10
2022-12-18T03:25:44.222Z,26.10
2022-12-18T03:28:21.003Z,28.90
2022-12-18T03:30:57.586Z,26.00
2022-12-18T03:33:41.216Z,21.00
2022-12-18T03:36:10.134Z,27.20
2022-12-18T03:38:40.121Z,26.20
2022-12-18T03:41:42.113Z,25.00
2022-12-18T03:45:31.717Z,25.50
2022-12-18T03:48:11.034Z,24.80
2022-12-18T03:51:15.742Z,25.00
2022-12-18T03:54:01.518Z,26.10
2022-12-18T03:56:41.511Z,24.00
2022-12-18T03:59:16.272Z,21.70
2022-12-18T04:01:50.881Z,23.20
2022-12-18T04:04:21.014Z,24.20
2022-12-18T04:06:51.639Z,24.30
2022-12-18T04:09:22.088Z,24.90
2022-12-18T04:11:50.662Z,25.40
2022-12-18T04:14:19.174Z,24.90
2022-12-18T04:16:50.553Z,25.60
2022-12-18T04:19:19.998Z,25.00
2022-12-18T04:21:49.501Z,25.60
2022-12-18T04:24:18.164Z,27.20
2022-12-18T04:26:54.128Z,24.70
2022-12-18T04:29:28.580Z,26.60
2022-12-18T04:31:57.148Z,26.80
2022-12-18T04:34:25.849Z,24.70
2022-12-18T04:36:54.797Z,23.80
2022-12-18T04:39:23.587Z,23.50
2022-12-18T04:41:53.380Z,23.30
2022-12-18T04:44:21.866Z,25.00
2022-12-18T04:46:50.325Z,25.90
2022-12-18T04:49:18.853Z,24.60
2022-12-18T04:51:47.343Z,24.40
2022-12-18T04:54:15.917Z,26.90
2022-12-18T04:56:45.037Z,29.10
2022-12-18T04:59:13.471Z,22.70
2022-12-18T05:01:42.078Z,23.10
2022-12-18T05:04:10.956Z,24.00
2022-12-18T05:06:39.573Z,23.50
2022-12-18T05:09:08.050Z,25.10
2022-12-18T05:11:36.494Z,27.00
2022-12-18T05:14:04.963Z,26.10
2022-12-18T05:16:33.474Z,28.40
2022-12-18T05:19:02.026Z,28.20
2022-12-18T05:21:30.477Z,30.30
2022-12-18T05:23:58.979Z,27.50
2022-12-18T05:26:27.405Z,27.80
2022-12-18T05:28:55.955Z,27.70
2022-12-18T05:31:24.457Z,31.50
2022-12-18T05:33:52.906Z,29.70
2022-12-18T05:36:21.426Z,30.00
2022-12-18T05:38:50.305Z,27.30
2022-12-18T05:41:18.761Z,30.20
2022-12-18T05:43:47.266Z,30.80
2022-12-18T05:46:19.061Z,31.50
2022-12-18T05:48:48.037Z,28.60
2022-12-18T05:51:19.126Z,33.30
2022-12-18T05:53:48.443Z,27.20
2022-12-18T05:56:21.183Z,27.90
2022-12-18T05:58:54.466Z,31.80
2022-12-18T06:01:27.658Z,31.20
2022-12-18T06:03:57.008Z,29.50
2022-12-18T06:06:28.260Z,34.70
2022-12-18T06:08:57.965Z,31.00
2022-12-18T06:11:27.857Z,34.20
2022-12-18T06:13:59.324Z,28.90
2022-12-18T06:16:30.138Z,30.90
2022-12-18T06:19:01.761Z,26.90
2022-12-18T06:21:31.425Z,31.80
2022-12-18T06:24:01.345Z,34.30
2022-12-18T06:26:29.783Z,34.70
2022-12-18T06:28:58.318Z,31.30
2022-12-18T06:31:27.748Z,32.40
2022-12-18T06:33:56.275Z,38.90
2022-12-18T06:36:24.758Z,33.70
2022-12-18T06:38:53.279Z,31.70
2022-12-18T06:41:22.686Z,31.60
2022-12-18T06:43:53.561Z,33.00
2022-12-18T06:46:24.130Z,31.40
2022-12-18T06:48:52.648Z,29.70
2022-12-18T06:51:23.740Z,31.90
2022-12-18T06:53:52.588Z,29.60
2022-12-18T06:56:21.148Z,29.70
2022-12-18T06:58:50.998Z,30.60
2022-12-18T07:01:20.032Z,26.40
2022-12-18T07:03:54.242Z,30.60
2022-12-18T07:06:26.364Z,32.10
2022-12-18T07:08:55.621Z,28.70
2022-12-18T07:11:24.304Z,26.90
2022-12-18T07:13:54.638Z,28.10
2022-12-18T07:16:25.624Z,26.60
2022-12-18T07:18:56.850Z,28.90
2022-12-18T07:21:26.022Z,26.80
2022-12-18T07:23:54.748Z,30.80
2022-12-18T07:26:24.032Z,30.20
2022-12-18T07:28:56.551Z,34.80
2022-12-18T07:31:26.281Z,32.70
2022-12-18T07:36:25.292Z,31.60
2022-12-18T07:38:54.338Z,34.70
2022-12-18T07:41:23.529Z,31.20
2022-12-18T07:43:52.468Z,34.70
2022-12-18T07:46:21.003Z,31.60
2022-12-18T07:48:50.439Z,34.50
2022-12-18T07:51:20.098Z,31.40
2022-12-18T07:53:52.165Z,31.80
2022-12-18T07:56:27.672Z,31.10
2022-12-18T07:59:00.835Z,32.90
2022-12-18T08:01:32.927Z,29.10
2022-12-18T08:04:01.697Z,34.30
2022-12-18T08:06:30.212Z,29.90
2022-12-18T08:08:59.041Z,26.70
2022-12-18T08:11:29.885Z,31.50
2022-12-18T08:14:03.960Z,33.20
2022-12-18T08:16:33.873Z,27.50
2022-12-18T08:19:02.716Z,33.00
2022-12-18T08:21:35.675Z,30.40
2022-12-18T08:24:10.463Z,30.80
2022-12-18T08:26:38.998Z,31.90
2022-12-18T08:29:07.456Z,29.60
2022-12-18T08:31:44.841Z,31.50
2022-12-18T08:34:13.398Z,34.70
2022-12-18T08:36:41.918Z,29.40
2022-12-18T08:39:10.339Z,26.00
2022-12-18T08:41:38.768Z,30.40
2022-12-18T08:44:27.618Z,28.60
2022-12-18T08:46:56.314Z,20.70
2022-12-18T08:49:24.730Z,29.80
2022-12-18T08:51:58.467Z,27.10
2022-12-18T08:54:27.678Z,23.90
2022-12-18T08:56:56.232Z,26.40
2022-12-18T08:59:24.837Z,23.00
2022-12-18T09:01:55.394Z,25.80
2022-12-18T09:04:24.029Z,25.10
2022-12-18T09:06:52.505Z,25.60
2022-12-18T09:09:20.990Z,25.00
2022-12-18T09:11:49.473Z,24.20
2022-12-18T09:14:17.989Z,28.00
2022-12-18T09:16:46.510Z,28.10
2022-12-18T09:19:15.065Z,25.50
2022-12-18T09:21:48.019Z,30.40
2022-12-18T09:24:17.791Z,27.20
2022-12-18T09:26:47.312Z,28.60
2022-12-18T09:29:18.962Z,30.70
2022-12-18T09:31:48.486Z,31.90
2022-12-18T09:34:17.937Z,33.40
2022-12-18T09:36:46.453Z,31.20
2022-12-18T09:39:15.951Z,32.90
2022-12-18T09:41:55.205Z,32.00
2022-12-18T09:44:56.271Z,31.80
2022-12-18T09:47:35.824Z,32.50
2022-12-18T09:50:28.583Z,32.40
2022-12-18T09:53:02.653Z,29.10
2022-12-18T09:55:47.272Z,33.00
2022-12-18T09:58:45.629Z,29.20
2022-12-18T10:01:23.956Z,30.40
2022-12-18T10:03:53.673Z,31.80
2022-12-18T10:09:35.968Z,29.90
2022-12-18T10:12:33.318Z,35.70
2022-12-18T10:15:30.606Z,29.80
2022-12-18T10:18:30.026Z,28.60
2022-12-18T10:21:08.881Z,30.80
2022-12-18T10:24:17.644Z,27.50
2022-12-18T10:26:46.346Z,25.90
2022-12-18T10:29:17.263Z,29.80
2022-12-18T10:31:45.695Z,32.10
2022-12-18T10:34:14.599Z,25.20
2022-12-18T10:36:43.963Z,25.00
2022-12-18T10:39:28.920Z,27.80
2022-12-18T10:42:20.250Z,25.30
2022-12-18T10:45:04.773Z,27.30
2022-12-18T10:47:35.894Z,22.70
2022-12-18T10:50:05.125Z,24.20
2022-12-18T10:52:33.709Z,25.50
2022-12-18T10:55:05.553Z,25.20
2022-12-18T10:57:38.135Z,24.20
2022-12-18T11:00:30.011Z,18.10
2022-12-18T11:02:59.072Z,20.90
2022-12-18T11:05:28.076Z,18.20
2022-12-18T11:07:57.723Z,18.10
2022-12-18T11:10:36.764Z,19.60
2022-12-18T11:13:19.954Z,19.30
2022-12-18T11:15:49.224Z,20.00
2022-12-18T11:18:26.611Z,17.70
2022-12-18T11:21:15.802Z,19.80
2022-12-18T11:23:53.840Z,20.10
2022-12-18T11:26:34.429Z,21.90
2022-12-18T11:29:28.422Z,19.50
2022-12-18T11:32:15.780Z,19.70
2022-12-18T11:34:57.380Z,20.10
2022-12-18T11:37:28.438Z,23.10
2022-12-18T11:40:09.396Z,25.20
2022-12-18T11:42:52.012Z,21.40
2022-12-18T11:45:33.102Z,22.00
2022-12-18T11:48:19.782Z,24.40
2022-12-18T11:50:52.902Z,24.60
2022-12-18T11:53:22.202Z,27.20
2022-12-18T11:56:27.838Z,25.70
2022-12-18T11:59:05.298Z,25.20
2022-12-18T12:01:47.030Z,20.80
2022-12-18T12:04:43.165Z,20.20
2022-12-18T12:07:40.082Z,15.30
2022-12-18T12:10:11.676Z,18.70
2022-12-18T12:13:11.933Z,18.40
2022-12-18T12:16:16.693Z,20.20
2022-12-18T12:18:57.921Z,20.20
2022-12-18T12:21:47.723Z,21.50
2022-12-18T12:24:34.113Z,18.10
2022-12-18T12:27:52.249Z,19.90
2022-12-18T12:30:39.724Z,20.10
2022-12-18T12:33:26.860Z,21.00
2022-12-18T12:36:24.429Z,19.40
2022-12-18T12:39:02.611Z,19.80
2022-12-18T12:41:53.463Z,22.60
2022-12-18T12:44:31.894Z,25.30
2022-12-18T12:47:12.929Z,23.20
2022-12-18T12:49:41.729Z,25.60
2022-12-18T12:52:32.300Z,22.90
2022-12-18T12:55:03.189Z,30.50
2022-12-18T12:57:42.933Z,21.60
2022-12-18T13:00:17.587Z,28.90
2022-12-18T13:03:07.844Z,27.90
2022-12-18T13:05:52.290Z,28.10
2022-12-18T13:08:30.962Z,23.60
2022-12-18T13:11:20.749Z,20.00
2022-12-18T13:13:56.782Z,17.70
2022-12-18T13:16:28.749Z,30.70
2022-12-18T13:19:00.010Z,19.30
2022-12-18T13:21:32.211Z,23.90
2022-12-18T13:24:32.333Z,20.60
2022-12-18T13:27:01.039Z,23.50
2022-12-18T13:29:47.041Z,23.00
2022-12-18T13:32:27.383Z,25.20
2022-12-18T13:35:23.717Z,22.20
2022-12-18T13:37:54.785Z,18.70
2022-12-18T13:40:43.619Z,17.00
2022-12-18T13:43:21.448Z,20.10
2022-12-18T13:46:42.805Z,20.40
2022-12-18T13:49:11.282Z,19.80
2022-12-18T13:51:50.488Z,22.10
2022-12-18T13:54:40.726Z,22.40
2022-12-18T13:57:39.722Z,22.70
2022-12-18T14:00:20.164Z,22.60
2022-12-18T14:02:50.266Z,21.20
2022-12-18T14:05:35.445Z,19.80
2022-12-18T14:08:17.781Z,20.40
2022-12-18T14:10:50.162Z,27.60
2022-12-18T14:13:43.057Z,23.60
2022-12-18T14:16:16.731Z,27.20
2022-12-18T14:18:49.373Z,23.80
2022-12-18T14:21:30.519Z,22.70
2022-12-18T14:24:22.940Z,25.30
2022-12-18T14:26:52.007Z,25.30
2022-12-18T14:29:25.042Z,29.10
2022-12-18T14:32:18.988Z,25.50
2022-12-18T14:34:55.179Z,27.40
2022-12-18T14:37:28.546Z,26.60
2022-12-18T14:40:11.061Z,25.50
2022-12-18T14:42:40.062Z,31.00
2022-12-18T14:45:41.119Z,26.90
2022-12-18T14:48:49.324Z,34.40
2022-12-18T14:51:26.444Z,25.90
2022-12-18T14:54:04.710Z,26.70
2022-12-18T14:56:43.748Z,26.90
2022-12-18T14:59:24.832Z,28.20
2022-12-18T15:02:27.835Z,28.30
2022-12-18T15:05:19.245Z,30.70
2022-12-18T15:07:56.643Z,26.90
2022-12-18T15:10:29.509Z,24.30
2022-12-18T15:12:58.053Z,29.00
2022-12-18T15:15:35.488Z,25.70
2022-12-18T15:18:18.157Z,26.40
2022-12-18T15:21:10.605Z,21.70
2022-12-18T15:23:45.368Z,23.00
2022-12-18T15:26:18.103Z,24.60
2022-12-18T15:28:53.639Z,26.70
2022-12-18T15:31:30.737Z,27.00
2022-12-18T15:34:00.539Z,21.70
2022-12-18T15:36:28.992Z,25.90
2022-12-18T15:39:05.051Z,22.40
2022-12-18T15:41:37.342Z,20.10
2022-12-18T15:44:26.647Z,20.70
2022-12-18T15:46:56.467Z,23.90
2022-12-18T15:51:57.865Z,18.20
2022-12-18T15:55:13.515Z,21.00
2022-12-18T15:57:42.063Z,21.10
2022-12-18T16:00:13.744Z,22.30
2022-12-18T16:02:42.335Z,22.80
2022-12-18T16:05:18.195Z,22.40
2022-12-18T16:07:47.135Z,21.70
2022-12-18T16:10:16.358Z,23.80
2022-12-18T16:12:45.167Z,22.40
2022-12-18T16:15:22.459Z,18.90
2022-12-18T16:17:53.449Z,20.80
2022-12-18T16:20:23.614Z,20.30
2022-12-18T16:22:52.354Z,22.70
2022-12-18T16:25:26.762Z,19.40
2022-12-18T16:27:56.701Z,21.40
2022-12-18T16:30:34.031Z,19.80
2022-12-18T16:33:07.677Z,16.00
2022-12-18T16:35:38.323Z,21.10
2022-12-18T16:38:06.862Z,20.50
2022-12-18T16:40:55.314Z,20.80
2022-12-18T16:43:23.700Z,19.90
2022-12-18T16:45:52.184Z,22.60
2022-12-18T16:48:20.788Z,21.00
2022-12-18T16:50:49.210Z,16.00
2022-12-18T16:53:17.741Z,21.60
2022-12-18T16:55:55.873Z,19.60
2022-12-18T16:58:24.834Z,19.80
2022-12-18T17:00:53.308Z,19.20
2022-12-18T17:03:21.947Z,21.00
2022-12-18T17:06:03.378Z,18.70
2022-12-18T17:08:32.693Z,17.70
2022-12-18T17:11:08.033Z,21.60
2022-12-18T17:13:36.609Z,19.00
2022-12-18T17:16:09.850Z,17.70
2022-12-18T17:18:38.394Z,16.70
2022-12-18T17:21:09.702Z,16.60
2022-12-18T17:23:38.444Z,15.10
2022-12-18T17:26:08.537Z,19.20
2022-12-18T17:28:39.361Z,17.30
2022-12-18T17:31:21.225Z,17.40
2022-12-18T17:33:50.062Z,21.30
2022-12-18T17:36:18.614Z,16.30
2022-12-18T17:38:56.333Z,15.80
2022-12-18T17:41:26.238Z,18.80
2022-12-18T17:43:57.801Z,15.30
2022-12-18T17:46:28.591Z,18.50
2022-12-18T17:48:59.542Z,17.20
2022-12-18T17:51:28.941Z,15.60
2022-12-18T17:53:57.685Z,17.50
2022-12-18T17:56:27.180Z,14.10
2022-12-18T17:58:55.650Z,14.60
2022-12-18T18:01:26.115Z,13.40
2022-12-18T18:03:58.221Z,11.20
2022-12-18T18:06:27.128Z,15.90
2022-12-18T18:08:55.677Z,15.50
2022-12-18T18:11:44.169Z,12.90
2022-12-18T18:14:19.573Z,13.90
2022-12-18T18:16:52.191Z,12.80
2022-12-18T18:19:23.787Z,12.50
2022-12-18T18:22:30.942Z,12.50
2022-12-18T18:24:43.961Z,12.30
2022-12-18T18:27:12.833Z,13.80
2022-12-18T18:29:41.565Z,14.70
2022-12-18T18:32:10.119Z,13.10
2022-12-18T18:34:42.730Z,13.20
2022-12-18T18:37:12.157Z,10.70
2022-12-18T18:39:40.805Z,11.00
2022-12-18T18:42:09.605Z,11.70
2022-12-18T18:44:38.065Z,10.20
2022-12-18T18:47:09.451Z,13.00
2022-12-18T18:49:38.287Z,13.00
2022-12-18T18:52:07.645Z,11.20
2022-12-18T18:54:36.104Z,11.80
2022-12-18T18:57:20.387Z,12.60
2022-12-18T18:59:49.732Z,12.30
2022-12-18T19:02:18.526Z,10.50
2022-12-18T19:04:47.383Z,14.50
2022-12-18T19:07:20.376Z,13.50
2022-12-18T19:10:03.943Z,12.70
2022-12-18T19:12:53.334Z,10.00
2022-12-18T19:15:23.509Z,12.90
2022-12-18T19:17:53.052Z,11.60
2022-12-18T19:22:55.491Z,10.50
2022-12-18T19:25:40.260Z,12.60
2022-12-18T19:28:19.263Z,11.40
2022-12-18T19:30:57.903Z,13.90
2022-12-18T19:33:45.738Z,12.70
2022-12-18T19:36:22.152Z,14.50
2022-12-18T19:38:52.940Z,12.40
2022-12-18T19:41:22.593Z,18.60
2022-12-18T19:46:23.515Z,13.60
2022-12-18T19:48:52.680Z,12.70
2022-12-18T19:51:25.440Z,11.70
2022-12-18T19:53:58.971Z,11.60
2022-12-18T19:56:32.469Z,13.40
2022-12-18T19:59:02.448Z,12.90
2022-12-18T20:01:31.987Z,13.40
2022-12-18T20:06:33.830Z,13.40
2022-12-18T20:09:06.833Z,15.60
2022-12-18T20:11:41.651Z,15.70
2022-12-18T20:14:12.694Z,13.80
2022-12-18T20:16:41.891Z,15.80
2022-12-18T20:19:13.021Z,15.20
2022-12-18T20:21:42.506Z,16.00
2022-12-18T20:24:10.952Z,16.30
2022-12-18T20:26:40.719Z,13.20
2022-12-18T20:31:37.720Z,18.40
2022-12-18T20:34:07.158Z,15.30
2022-12-18T20:36:37.628Z,15.30
2022-12-18T20:39:08.732Z,19.30
2022-12-18T20:41:39.314Z,16.60
2022-12-18T20:44:23.431Z,21.20
2022-12-18T20:46:56.707Z,23.30
2022-12-18T20:49:26.905Z,17.50
2022-12-18T20:51:57.918Z,18.80
2022-12-18T20:54:27.793Z,20.40
2022-12-18T20:56:57.121Z,21.10
2022-12-18T20:59:26.264Z,17.90
2022-12-18T21:01:55.219Z,18.50
2022-12-18T21:04:24.183Z,18.50
2022-12-18T21:06:57.793Z,21.10
2022-12-18T21:09:37.487Z,21.00
2022-12-18T21:12:40.349Z,21.00
2022-12-18T21:15:13.890Z,21.00
2022-12-18T21:17:44.774Z,24.60
2022-12-18T21:20:17.856Z,18.80
2022-12-18T21:22:47.435Z,19.30
2022-12-18T21:25:16.300Z,21.70
2022-12-18T21:27:44.713Z,18.10
2022-12-18T21:30:15.268Z,17.60
2022-12-18T21:32:44.192Z,18.90
2022-12-18T21:35:12.830Z,18.80
2022-12-18T21:37:41.286Z,18.40
2022-12-18T21:40:10.440Z,20.00
2022-12-18T21:42:57.733Z,16.70
2022-12-18T21:45:26.339Z,18.40
2022-12-18T21:47:54.749Z,17.20
2022-12-18T21:50:23.377Z,17.70
2022-12-18T21:52:51.804Z,17.20
2022-12-18T21:55:20.236Z,16.60
2022-12-18T21:57:48.686Z,15.30
2022-12-18T22:00:19.127Z,17.10
2022-12-18T22:03:01.131Z,16.90
2022-12-18T22:05:38.781Z,13.70
2022-12-18T22:08:07.750Z,19.50
2022-12-18T22:10:37.054Z,18.40
2022-12-18T22:13:07.509Z,17.20
2022-12-18T22:15:36.031Z,15.60
2022-12-18T22:18:04.633Z,18.30
2022-12-18T22:20:33.314Z,17.20
2022-12-18T22:23:04.227Z,18.50
2022-12-18T22:25:36.291Z,18.10
2022-12-18T22:28:26.872Z,17.30
2022-12-18T22:30:59.723Z,15.60
2022-12-18T22:33:28.727Z,16.40
2022-12-18T22:35:57.446Z,17.90
2022-12-18T22:38:26.118Z,16.20
2022-12-18T22:40:55.297Z,19.30
2022-12-18T22:43:23.801Z,16.80
2022-12-18T22:45:52.282Z,15.70
2022-12-18T22:48:20.908Z,15.30
2022-12-18T22:50:50.171Z,14.30
2022-12-18T22:53:21.640Z,17.00
2022-12-18T22:55:50.050Z,14.90
2022-12-18T22:58:18.601Z,18.60
2022-12-18T23:00:47.005Z,15.40
2022-12-18T23:03:15.588Z,15.70
2022-12-18T23:05:44.217Z,16.70
2022-12-18T23:08:12.626Z,15.10
2022-12-18T23:10:41.215Z,17.30
2022-12-18T23:13:09.561Z,16.50
2022-12-18T23:15:43.152Z,17.40
2022-12-18T23:18:11.893Z,16.80
2022-12-18T23:20:40.242Z,18.10
2022-12-18T23:23:10.140Z,15.50
2022-12-18T23:25:38.598Z,16.20
2022-12-18T23:28:07.247Z,15.50
2022-12-18T23:30:35.824Z,19.60
2022-12-18T23:33:04.448Z,15.90
2022-12-18T23:35:32.997Z,14.50
2022-12-18T23:38:01.549Z,15.60
2022-12-18T23:40:30.244Z,16.00
2022-12-18T23:43:00.348Z,16.40
2022-12-18T23:45:29.082Z,18.10
2022-12-18T23:47:57.523Z,17.70
2022-12-18T23:50:29.612Z,19.10
2022-12-18T23:53:02.536Z,20.00
2022-12-18T23:55:40.460Z,18.50
2022-12-18T23:58:20.021Z,14.80
